Time;durP1;ratioP1;P1;durP2;ratioP2;P2;SDS_P1;SDS_P2;PMS_P1;PMS_P2;Temp;Humidity;BMP_temperature;BMP_pressure;BME280_temperature;BME280_humidity;BME280_pressure;Samples;Min_cycle;Max_cycle;Signal;HPM_P1;HPM_P2
2022/05/28 00:01:35;;;;;;;2.45;0.82;;;23.90;99.90;;;;;;5008931;28;20045;-55
2022/05/28 00:04:04;;;;;;;2.67;0.98;;;23.90;99.90;;;;;;5007986;28;20367;-53
2022/05/28 00:06:32;;;;;;;2.22;0.95;;;23.90;99.90;;;;;;5006979;28;20042;-52
2022/05/28 00:08:59;;;;;;;2.50;0.90;;;23.90;99.90;;;;;;5008237;28;20480;-53
2022/05/28 00:11:27;;;;;;;1.30;0.75;;;23.90;99.90;;;;;;5009808;28;20080;-52
2022/05/28 00:13:53;;;;;;;1.13;0.70;;;23.90;99.90;;;;;;5007077;28;20033;-51
2022/05/28 00:16:20;;;;;;;3.83;0.80;;;23.90;99.90;;;;;;5007314;28;20029;-55
2022/05/28 00:18:47;;;;;;;2.17;0.93;;;23.90;99.90;;;;;;5005459;28;20026;-55
2022/05/28 00:21:14;;;;;;;2.63;0.95;;;23.90;99.90;;;;;;5011574;28;20347;-55
2022/05/28 00:23:40;;;;;;;4.07;0.90;;;23.90;99.90;;;;;;5009643;28;20030;-54
2022/05/28 00:26:06;;;;;;;2.50;0.88;;;23.90;99.90;;;;;;5011484;28;20020;-54
2022/05/28 00:28:33;;;;;;;1.83;0.90;;;23.90;99.90;;;;;;5004320;28;20062;-55
2022/05/28 00:31:00;;;;;;;2.38;0.93;;;23.90;99.90;;;;;;5009879;28;20041;-52
2022/05/28 00:33:27;;;;;;;1.48;0.65;;;23.90;99.90;;;;;;5010292;28;20022;-53
2022/05/28 00:35:53;;;;;;;1.42;0.70;;;23.90;99.90;;;;;;5011735;28;20042;-53
2022/05/28 00:38:19;;;;;;;2.33;0.80;;;23.90;99.90;;;;;;5013557;28;20033;-53
2022/05/28 00:40:47;;;;;;;1.70;0.73;;;23.90;99.90;;;;;;5009281;28;20114;-53
2022/05/28 00:43:13;;;;;;;2.45;0.90;;;24.00;99.90;;;;;;5012599;28;20041;-51
2022/05/28 00:45:40;;;;;;;2.55;0.60;;;24.00;99.90;;;;;;5005913;28;20156;-53
2022/05/28 00:48:07;;;;;;;1.83;0.70;;;24.00;99.90;;;;;;5013367;28;20433;-55
2022/05/28 00:50:35;;;;;;;2.72;0.82;;;23.90;99.90;;;;;;5009517;28;20034;-54
2022/05/28 00:53:02;;;;;;;1.90;0.90;;;24.00;99.90;;;;;;4999894;28;20024;-52
2022/05/28 00:55:32;;;;;;;0.88;0.80;;;23.90;99.90;;;;;;5005065;28;20446;-52
2022/05/28 00:57:59;;;;;;;1.90;1.05;;;23.90;99.90;;;;;;5008542;28;20026;-52
2022/05/28 01:00:25;;;;;;;1.90;1.10;;;23.90;99.90;;;;;;5004604;28;20497;-52
2022/05/28 01:03:05;;;;;;;4.38;1.15;;;23.90;99.90;;;;;;5013365;28;20033;-50
2022/05/28 01:05:44;;;;;;;3.03;0.93;;;23.90;99.90;;;;;;4999721;28;20417;-51
2022/05/28 01:08:29;;;;;;;1.25;0.90;;;23.90;99.90;;;;;;5011179;28;20105;-52
2022/05/28 01:11:06;;;;;;;2.33;0.80;;;23.90;99.90;;;;;;5011456;28;20091;-52
2022/05/28 01:13:35;;;;;;;2.70;0.95;;;23.90;99.90;;;;;;4999389;28;20109;-53
2022/05/28 01:16:10;;;;;;;3.13;0.77;;;23.80;99.90;;;;;;5004378;28;20485;-52
2022/05/28 01:18:43;;;;;;;4.00;0.90;;;23.80;99.90;;;;;;5007339;28;20041;-53
2022/05/28 01:21:19;;;;;;;1.73;0.90;;;23.80;99.90;;;;;;5011602;28;20032;-52
2022/05/28 01:24:16;;;;;;;4.30;1.77;;;23.80;99.90;;;;;;5008225;28;20108;-54
2022/05/28 01:27:07;;;;;;;3.65;0.88;;;23.80;99.90;;;;;;5011463;28;20586;-53
2022/05/28 01:29:56;;;;;;;2.90;1.08;;;23.90;99.90;;;;;;5010644;28;20034;-55
2022/05/28 01:32:26;;;;;;;2.45;0.98;;;23.80;99.90;;;;;;5009138;28;20033;-53
2022/05/28 01:34:53;;;;;;;1.98;0.60;;;23.80;99.90;;;;;;5011297;28;20037;-52
2022/05/28 01:37:21;;;;;;;5.35;0.63;;;23.80;99.90;;;;;;5002582;28;20022;-53
2022/05/28 01:39:49;;;;;;;0.98;0.70;;;23.80;99.90;;;;;;5006731;28;20026;-53
2022/05/28 01:42:16;;;;;;;1.35;0.75;;;23.80;99.90;;;;;;5003894;28;20041;-54
2022/05/28 01:44:45;;;;;;;1.35;0.80;;;23.80;99.90;;;;;;5004172;28;20022;-54
2022/05/28 01:47:14;;;;;;;1.38;0.77;;;23.80;99.90;;;;;;5011593;28;20060;-53
2022/05/28 01:49:41;;;;;;;1.58;0.80;;;23.80;99.90;;;;;;5003652;28;20447;-56
2022/05/28 01:52:09;;;;;;;0.88;0.50;;;23.80;99.90;;;;;;5011591;28;20045;-57
2022/05/28 01:54:43;;;;;;;0.90;0.65;;;23.80;99.90;;;;;;5011373;28;20386;-54
2022/05/28 01:57:11;;;;;;;1.38;0.80;;;23.70;99.90;;;;;;5011222;28;20045;-54
2022/05/28 01:59:37;;;;;;;2.05;0.60;;;23.80;99.90;;;;;;4961183;28;1456223;-55
2022/05/28 02:02:06;;;;;;;1.15;0.43;;;23.80;99.90;;;;;;5012140;28;20088;-55
2022/05/28 02:04:34;;;;;;;2.03;0.80;;;23.70;99.90;;;;;;5002168;28;20092;-59
2022/05/28 02:07:03;;;;;;;2.50;0.80;;;23.80;99.90;;;;;;5003342;28;20030;-56
2022/05/28 02:09:33;;;;;;;1.05;0.70;;;23.80;99.90;;;;;;5009472;28;20073;-53
2022/05/28 02:12:07;;;;;;;1.15;0.43;;;23.80;99.90;;;;;;5000430;28;20040;-54
2022/05/28 02:14:36;;;;;;;4.05;1.35;;;23.80;99.90;;;;;;5009616;28;20026;-53
2022/05/28 02:17:19;;;;;;;5.50;0.80;;;23.80;99.90;;;;;;5011951;28;20034;-53
2022/05/28 02:20:09;;;;;;;3.15;0.82;;;23.70;99.90;;;;;;5009679;28;20019;-54
2022/05/28 02:23:00;;;;;;;2.63;0.73;;;23.70;99.90;;;;;;5012153;28;20029;-53
2022/05/28 02:25:34;;;;;;;2.35;0.50;;;23.80;99.90;;;;;;5007731;28;20022;-56
2022/05/28 02:28:03;;;;;;;1.45;0.52;;;23.80;99.90;;;;;;5006089;28;20101;-58
2022/05/28 02:30:30;;;;;;;3.13;0.70;;;23.80;99.90;;;;;;5003535;28;20605;-56
2022/05/28 02:33:01;;;;;;;1.65;0.80;;;23.70;99.90;;;;;;5004303;28;20069;-54
2022/05/28 02:35:27;;;;;;;4.57;0.90;;;23.70;99.90;;;;;;5005065;28;20397;-54
2022/05/28 02:37:52;;;;;;;2.58;0.60;;;23.70;99.90;;;;;;5013126;28;20120;-53
2022/05/28 02:40:18;;;;;;;1.90;0.98;;;23.70;99.90;;;;;;5004261;28;20033;-53
2022/05/28 02:42:44;;;;;;;2.25;0.52;;;23.70;99.90;;;;;;5011598;28;20834;-53
2022/05/28 02:45:10;;;;;;;3.85;0.65;;;23.60;99.90;;;;;;5003784;28;20031;-52
2022/05/28 02:47:36;;;;;;;1.13;0.70;;;23.60;99.90;;;;;;4995023;28;20027;-53
2022/05/28 02:50:02;;;;;;;3.60;0.65;;;23.70;99.90;;;;;;5007291;28;20065;-53
2022/05/28 02:52:28;;;;;;;4.25;1.02;;;23.80;99.90;;;;;;4998203;28;20482;-53
2022/05/28 02:54:54;;;;;;;1.83;0.65;;;23.80;99.90;;;;;;4998992;28;20451;-54
2022/05/28 02:57:19;;;;;;;1.73;0.82;;;24.00;99.90;;;;;;5000274;28;20018;-54
2022/05/28 02:59:45;;;;;;;2.85;0.77;;;24.00;99.90;;;;;;5010347;28;20042;-53
2022/05/28 03:02:11;;;;;;;2.13;0.50;;;24.10;99.90;;;;;;5011199;28;20037;-53
2022/05/28 03:04:37;;;;;;;1.67;0.60;;;24.20;99.90;;;;;;5002356;28;20018;-54
2022/05/28 03:07:03;;;;;;;2.08;0.80;;;24.30;99.90;;;;;;5010003;28;20490;-54
2022/05/28 03:09:29;;;;;;;2.97;0.75;;;24.30;99.90;;;;;;5009832;28;20056;-53
2022/05/28 03:11:54;;;;;;;3.63;0.70;;;24.30;99.90;;;;;;5010318;28;20056;-54
2022/05/28 03:14:20;;;;;;;1.35;0.68;;;24.40;99.90;;;;;;5011198;28;20022;-54
2022/05/28 03:16:46;;;;;;;1.15;0.50;;;24.40;99.90;;;;;;5010050;28;20659;-53
2022/05/28 03:19:12;;;;;;;1.98;0.77;;;24.50;99.90;;;;;;5009870;28;20378;-53
2022/05/28 03:21:38;;;;;;;2.58;0.75;;;24.50;99.90;;;;;;5011091;28;20033;-53
2022/05/28 03:24:06;;;;;;;2.42;0.57;;;24.50;99.90;;;;;;5011147;28;20033;-53
2022/05/28 03:26:32;;;;;;;2.50;0.60;;;24.50;99.90;;;;;;5011085;28;20489;-53
2022/05/28 03:28:58;;;;;;;0.88;0.70;;;24.50;99.90;;;;;;5011243;28;20018;-53
2022/05/28 03:31:25;;;;;;;3.78;1.33;;;24.50;99.90;;;;;;5011157;28;20124;-52
2022/05/28 03:33:52;;;;;;;2.35;0.85;;;24.50;99.90;;;;;;5011402;28;20022;-52
2022/05/28 03:36:19;;;;;;;1.80;0.40;;;24.50;99.90;;;;;;5010965;28;20112;-52
2022/05/28 03:38:45;;;;;;;1.40;0.60;;;24.60;99.90;;;;;;5010848;28;20470;-52
2022/05/28 03:41:10;;;;;;;2.13;0.65;;;24.60;99.90;;;;;;5010914;28;20052;-53
2022/05/28 03:43:37;;;;;;;0.82;0.60;;;24.60;99.90;;;;;;5010809;28;20383;-53
2022/05/28 03:46:04;;;;;;;0.45;0.35;;;24.50;99.90;;;;;;5011001;28;20033;-53
2022/05/28 03:48:32;;;;;;;1.38;0.93;;;24.50;99.90;;;;;;5010903;28;20080;-52
2022/05/28 03:50:58;;;;;;;1.27;0.70;;;24.50;99.90;;;;;;5010757;28;20457;-53
2022/05/28 03:53:24;;;;;;;1.70;0.82;;;24.50;99.90;;;;;;5012948;28;20018;-53
2022/05/28 03:55:51;;;;;;;1.00;0.60;;;24.50;99.90;;;;;;5014720;28;20101;-53
2022/05/28 03:58:17;;;;;;;0.63;0.50;;;24.50;99.90;;;;;;5014846;28;20049;-53
2022/05/28 04:00:43;;;;;;;1.10;0.50;;;24.50;99.90;;;;;;5015660;28;20525;-52
2022/05/28 04:03:09;;;;;;;3.10;1.00;;;24.50;99.90;;;;;;5013256;28;20022;-53
2022/05/28 04:05:38;;;;;;;0.80;0.57;;;24.60;99.90;;;;;;5014517;28;20079;-53
2022/05/28 04:08:05;;;;;;;1.10;0.47;;;24.60;99.90;;;;;;5014459;28;20044;-52
2022/05/28 04:10:31;;;;;;;0.85;0.50;;;24.60;99.90;;;;;;5014387;28;20398;-53
2022/05/28 04:12:57;;;;;;;1.60;0.73;;;24.70;99.90;;;;;;5014445;28;20030;-53
2022/05/28 04:15:24;;;;;;;0.95;0.60;;;24.60;99.90;;;;;;5014350;28;20417;-53
2022/05/28 04:17:50;;;;;;;0.73;0.50;;;24.60;99.90;;;;;;5014193;28;20036;-53
2022/05/28 04:20:16;;;;;;;1.48;1.20;;;24.60;99.90;;;;;;5012961;28;20018;-53
2022/05/28 04:22:42;;;;;;;6.25;1.77;;;24.60;99.90;;;;;;5014213;28;20029;-52
2022/05/28 04:25:08;;;;;;;1.77;0.60;;;24.50;99.90;;;;;;5013950;28;20014;-53
2022/05/28 04:27:34;;;;;;;2.22;0.75;;;24.60;99.90;;;;;;5014178;28;20029;-53
2022/05/28 04:30:01;;;;;;;5.38;1.48;;;24.50;99.90;;;;;;5014112;28;20353;-53
2022/05/28 04:32:26;;;;;;;3.07;1.00;;;24.60;99.90;;;;;;5014343;28;20022;-53
2022/05/28 04:34:52;;;;;;;1.33;0.73;;;24.60;99.90;;;;;;5013874;28;20022;-53
2022/05/28 04:37:18;;;;;;;2.25;0.90;;;24.70;99.90;;;;;;5014084;28;20080;-52
2022/05/28 04:39:45;;;;;;;1.70;1.10;;;24.70;99.90;;;;;;5013959;28;20440;-54
2022/05/28 04:42:11;;;;;;;1.52;0.82;;;24.70;99.90;;;;;;5013669;28;20371;-54
2022/05/28 04:44:36;;;;;;;2.67;0.80;;;24.70;99.90;;;;;;5013948;28;20092;-53
2022/05/28 04:47:02;;;;;;;1.83;1.00;;;24.70;99.90;;;;;;5013522;28;20018;-52
2022/05/28 04:49:28;;;;;;;3.92;1.20;;;24.70;99.90;;;;;;5013846;28;20109;-52
2022/05/28 04:51:54;;;;;;;2.03;0.73;;;24.70;99.90;;;;;;5013643;28;20105;-52
2022/05/28 04:54:20;;;;;;;1.85;1.02;;;24.70;99.90;;;;;;5013632;28;20014;-53
2022/05/28 04:56:46;;;;;;;1.80;1.10;;;24.80;99.90;;;;;;5013685;28;20057;-52
2022/05/28 04:59:12;;;;;;;2.55;0.75;;;24.80;99.90;;;;;;5013548;28;20021;-53
2022/05/28 05:01:37;;;;;;;4.72;1.67;;;24.80;99.90;;;;;;5013644;28;20053;-53
2022/05/28 05:04:04;;;;;;;4.00;0.60;;;24.70;99.90;;;;;;5013339;28;20030;-52
2022/05/28 05:06:30;;;;;;;3.20;0.87;;;24.80;99.90;;;;;;5013405;28;20445;-52
2022/05/28 05:08:57;;;;;;;2.33;1.10;;;24.80;99.90;;;;;;5013446;28;20050;-52
2022/05/28 05:11:23;;;;;;;3.53;1.17;;;24.80;99.90;;;;;;5013316;28;20113;-53
2022/05/28 05:13:48;;;;;;;5.63;1.00;;;24.80;99.90;;;;;;5013345;28;20129;-52
2022/05/28 05:16:16;;;;;;;2.53;1.10;;;24.80;99.90;;;;;;5013197;28;20029;-53
2022/05/28 05:18:42;;;;;;;2.05;1.20;;;24.80;99.90;;;;;;5013301;28;20014;-52
2022/05/28 05:21:11;;;;;;;1.90;1.33;;;24.80;99.90;;;;;;5013180;28;20030;-52
2022/05/28 05:23:38;;;;;;;1.58;0.80;;;24.90;99.90;;;;;;5013175;28;20022;-52
2022/05/28 05:26:16;;;;;;;2.45;1.00;;;24.90;99.90;;;;;;5013139;28;20055;-53
2022/05/28 05:28:42;;;;;;;1.65;0.88;;;24.90;99.90;;;;;;5012992;28;20026;-53
2022/05/28 05:31:08;;;;;;;1.52;1.13;;;24.90;99.90;;;;;;5012874;28;20044;-52
2022/05/28 05:33:34;;;;;;;2.75;1.30;;;24.90;99.90;;;;;;5012826;28;20084;-53
2022/05/28 05:36:00;;;;;;;2.35;1.10;;;25.00;99.90;;;;;;5013163;28;20034;-54
2022/05/28 05:38:26;;;;;;;3.33;1.20;;;25.00;99.90;;;;;;5012794;28;20108;-52
2022/05/28 05:40:53;;;;;;;2.13;1.08;;;25.00;99.90;;;;;;5012795;28;20040;-52
2022/05/28 05:43:19;;;;;;;1.00;0.93;;;25.00;99.90;;;;;;5012569;28;20385;-52
2022/05/28 05:45:53;;;;;;;6.60;1.30;;;25.00;99.90;;;;;;5012815;28;20500;-52
2022/05/28 05:48:19;;;;;;;3.50;1.20;;;25.00;99.90;;;;;;5012776;28;20080;-53
2022/05/28 05:50:45;;;;;;;1.38;1.00;;;25.00;99.90;;;;;;5012318;28;20544;-52
2022/05/28 05:53:11;;;;;;;3.67;1.30;;;25.00;99.90;;;;;;5012673;28;20018;-52
2022/05/28 05:55:37;;;;;;;2.05;1.33;;;25.00;99.90;;;;;;5012343;28;20030;-53
2022/05/28 05:58:04;;;;;;;2.35;1.20;;;25.00;99.90;;;;;;5012704;28;20076;-52
2022/05/28 06:00:30;;;;;;;2.53;1.42;;;25.10;99.90;;;;;;5012319;28;20050;-53
2022/05/28 06:02:55;;;;;;;1.33;0.88;;;25.10;99.90;;;;;;5012148;28;20032;-51
2022/05/28 06:05:21;;;;;;;2.60;0.82;;;25.10;99.90;;;;;;5012637;28;20034;-53
2022/05/28 06:07:47;;;;;;;1.17;0.80;;;25.10;99.90;;;;;;5012126;28;20033;-53
2022/05/28 06:10:13;;;;;;;2.47;1.15;;;25.10;99.90;;;;;;5012191;28;20083;-52
2022/05/28 06:12:39;;;;;;;2.67;1.25;;;25.10;99.90;;;;;;5012345;28;20037;-52
2022/05/28 06:15:06;;;;;;;2.13;1.00;;;25.10;99.90;;;;;;5011944;28;20022;-54
2022/05/28 06:17:34;;;;;;;2.93;1.83;;;25.20;99.90;;;;;;5011875;28;20080;-53
2022/05/28 06:20:05;;;;;;;1.98;1.20;;;25.20;99.90;;;;;;5012015;28;20018;-54
2022/05/28 06:22:32;;;;;;;1.25;1.02;;;25.20;99.90;;;;;;5012141;28;20033;-54
2022/05/28 06:24:57;;;;;;;20.02;14.82;;;25.30;99.90;;;;;;5011979;28;20101;-54
2022/05/28 06:27:23;;;;;;;3.40;1.73;;;25.20;99.90;;;;;;5012116;28;20160;-54
2022/05/28 06:29:49;;;;;;;2.80;1.67;;;25.20;99.90;;;;;;5011752;28;20030;-53
2022/05/28 06:32:15;;;;;;;4.68;2.28;;;25.30;99.90;;;;;;5011779;28;20437;-53
2022/05/28 06:34:41;;;;;;;6.07;2.88;;;25.30;99.90;;;;;;5011794;28;20033;-54
2022/05/28 06:37:11;;;;;;;3.92;1.30;;;25.30;99.90;;;;;;5011663;28;20022;-51
2022/05/28 06:39:38;;;;;;;3.03;1.55;;;25.30;99.90;;;;;;5011687;28;20018;-54
2022/05/28 06:42:05;;;;;;;5.22;1.88;;;25.30;99.90;;;;;;5011786;28;20026;-53
2022/05/28 06:44:31;;;;;;;2.67;1.40;;;25.40;99.90;;;;;;5011637;28;20500;-51
2022/05/28 06:46:57;;;;;;;3.30;2.30;;;25.40;99.90;;;;;;5011571;28;20028;-52
2022/05/28 06:49:23;;;;;;;3.63;2.08;;;25.40;99.90;;;;;;5010450;28;20493;-52
2022/05/28 06:51:50;;;;;;;2.45;1.50;;;25.50;99.90;;;;;;5011156;28;20045;-52
2022/05/28 06:54:16;;;;;;;2.95;2.15;;;25.50;99.90;;;;;;5011442;28;20069;-52
2022/05/28 06:56:42;;;;;;;2.95;1.95;;;25.50;99.90;;;;;;5010242;28;20029;-51
2022/05/28 06:59:08;;;;;;;13.68;11.65;;;25.50;99.90;;;;;;5011389;28;20026;-52
2022/05/28 07:01:34;;;;;;;2.92;2.20;;;25.50;99.90;;;;;;5010237;28;20584;-52
2022/05/28 07:03:59;;;;;;;2.95;2.10;;;25.50;99.90;;;;;;5011385;28;20026;-51
2022/05/28 07:06:27;;;;;;;4.75;3.30;;;25.60;99.90;;;;;;5010040;28;20029;-52
2022/05/28 07:08:53;;;;;;;6.95;3.50;;;25.60;99.90;;;;;;5011531;28;20473;-52
2022/05/28 07:11:18;;;;;;;3.63;2.78;;;25.60;99.90;;;;;;5011192;28;20124;-52
2022/05/28 07:13:44;;;;;;;3.50;2.42;;;25.70;99.90;;;;;;5011289;28;20037;-51
2022/05/28 07:16:11;;;;;;;3.22;2.40;;;25.70;99.90;;;;;;5011138;28;20073;-52
2022/05/28 07:18:38;;;;;;;3.92;2.33;;;25.70;99.90;;;;;;5011558;28;20018;-52
2022/05/28 07:21:06;;;;;;;3.35;2.22;;;25.70;99.90;;;;;;5011531;28;20389;-52
2022/05/28 07:23:32;;;;;;;3.25;2.72;;;25.70;99.90;;;;;;5010976;28;20105;-52
2022/05/28 07:26:08;;;;;;;3.73;2.00;;;25.70;99.90;;;;;;5011468;28;20385;-52
2022/05/28 07:28:36;;;;;;;3.83;1.95;;;25.80;99.90;;;;;;5013200;28;20260;-53
2022/05/28 07:31:08;;;;;;;2.28;1.70;;;25.80;99.90;;;;;;5013905;28;20046;-52
2022/05/28 07:33:37;;;;;;;5.10;2.38;;;25.80;99.90;;;;;;5015054;28;20022;-52
2022/05/28 07:36:05;;;;;;;4.38;1.40;;;25.80;99.90;;;;;;5015217;28;20026;-52
2022/05/28 07:38:32;;;;;;;3.72;1.60;;;25.80;99.90;;;;;;5014980;28;20428;-52
2022/05/28 07:41:08;;;;;;;4.20;1.80;;;25.80;99.90;;;;;;5014993;28;20038;-52
2022/05/28 07:43:35;;;;;;;4.05;1.85;;;25.80;99.90;;;;;;5014628;28;20037;-53
2022/05/28 07:46:02;;;;;;;5.05;2.88;;;25.90;99.90;;;;;;5014752;28;20374;-53
2022/05/28 07:48:28;;;;;;;4.00;2.80;;;25.90;99.90;;;;;;5014870;28;20038;-53
2022/05/28 07:50:54;;;;;;;5.35;3.58;;;25.90;99.90;;;;;;5014599;28;20291;-53
2022/05/28 07:53:19;;;;;;;5.82;2.80;;;26.00;99.90;;;;;;5014733;28;20075;-53
2022/05/28 07:55:45;;;;;;;4.50;2.25;;;26.00;99.90;;;;;;5014597;28;20041;-52
2022/05/28 07:58:14;;;;;;;3.92;3.00;;;25.90;99.90;;;;;;5014614;28;20482;-52
2022/05/28 08:00:45;;;;;;;5.43;3.90;;;26.00;99.90;;;;;;5014633;28;20136;-52
2022/05/28 08:03:12;;;;;;;4.72;2.58;;;26.10;99.90;;;;;;5014403;28;20048;-52
2022/05/28 08:05:40;;;;;;;3.15;2.10;;;26.00;99.90;;;;;;5014729;28;20037;-52
2022/05/28 08:08:07;;;;;;;4.28;2.40;;;26.10;99.90;;;;;;5014595;28;20022;-52
2022/05/28 08:10:33;;;;;;;3.60;2.45;;;26.10;99.90;;;;;;5014477;28;20037;-53
2022/05/28 08:13:04;;;;;;;3.78;2.38;;;26.10;99.90;;;;;;5014256;28;20022;-52
2022/05/28 08:15:29;;;;;;;2.92;2.05;;;26.10;99.90;;;;;;5014267;28;20050;-52
2022/05/28 08:17:55;;;;;;;4.20;2.58;;;26.10;99.90;;;;;;5014258;28;20049;-52
2022/05/28 08:23:08;;;;;;;4.38;2.38;;;26.10;99.90;;;;;;5014130;28;20021;-53
2022/05/28 08:23:10;;;;;;;5.70;1.80;;;26.10;99.90;;;;;;5014081;28;20089;-53
2022/05/28 08:25:36;;;;;;;3.42;1.90;;;26.20;99.90;;;;;;5014256;28;20018;-52
2022/05/28 08:28:03;;;;;;;4.45;2.20;;;26.20;99.90;;;;;;5013994;28;20030;-53
2022/05/28 08:30:29;;;;;;;3.25;2.13;;;26.20;99.90;;;;;;5013772;28;20371;-52
2022/05/28 08:32:54;;;;;;;8.00;2.83;;;26.20;99.90;;;;;;5014125;28;20018;-52
2022/05/28 08:35:21;;;;;;;3.35;1.83;;;26.30;99.90;;;;;;5013837;28;20056;-53
2022/05/28 08:37:47;;;;;;;2.88;1.90;;;26.30;99.90;;;;;;5013857;28;20018;-52
2022/05/28 08:40:14;;;;;;;3.17;1.95;;;26.30;99.90;;;;;;5013239;28;20387;-53
2022/05/28 08:42:41;;;;;;;2.53;1.80;;;26.30;99.90;;;;;;5014073;28;20081;-52
2022/05/28 08:45:07;;;;;;;3.28;1.85;;;26.30;99.90;;;;;;5013463;28;20038;-53
2022/05/28 08:47:38;;;;;;;3.15;2.40;;;26.30;99.90;;;;;;5013452;28;20029;-52
2022/05/28 08:50:07;;;;;;;2.88;2.20;;;26.30;99.90;;;;;;5012152;28;20046;-52
2022/05/28 08:52:55;;;;;;;3.28;2.10;;;26.30;99.90;;;;;;5012373;28;20418;-53
2022/05/28 08:55:25;;;;;;;3.30;1.70;;;26.30;99.90;;;;;;5013587;28;20061;-53
2022/05/28 08:58:05;;;;;;;5.03;2.92;;;26.40;99.90;;;;;;5013229;28;20113;-53
2022/05/28 09:00:44;;;;;;;3.25;2.65;;;26.40;99.90;;;;;;5013228;28;20510;-53
2022/05/28 09:03:49;;;;;;;4.25;2.47;;;26.40;99.90;;;;;;5013284;28;20030;-53
2022/05/28 09:06:17;;;;;;;3.42;2.47;;;26.40;99.90;;;;;;5013122;28;20029;-52
2022/05/28 09:08:51;;;;;;;2.70;2.33;;;26.40;99.90;;;;;;5013606;28;20038;-52
2022/05/28 09:11:36;;;;;;;3.63;2.75;;;26.40;99.90;;;;;;5013285;28;20124;-52
2022/05/28 09:14:23;;;;;;;4.85;2.42;;;26.40;99.90;;;;;;5013172;28;20181;-53
2022/05/28 09:16:52;;;;;;;2.33;1.90;;;26.40;99.90;;;;;;4999185;28;20541;-53
2022/05/28 09:19:31;;;;;;;4.45;2.35;;;26.50;99.90;;;;;;5012833;28;20052;-53
2022/05/28 09:21:57;;;;;;;5.05;2.10;;;26.50;99.90;;;;;;5013073;28;20053;-54
2022/05/28 09:24:28;;;;;;;2.28;2.05;;;26.50;99.90;;;;;;5013143;28;20065;-53
2022/05/28 09:27:26;;;;;;;3.15;1.67;;;26.50;99.90;;;;;;5012816;28;20018;-59
2022/05/28 09:29:52;;;;;;;3.53;1.85;;;26.50;99.90;;;;;;5008423;28;20247;-52
2022/05/28 09:32:23;;;;;;;2.97;1.92;;;26.50;99.90;;;;;;5011449;28;20493;-54
2022/05/28 09:35:25;;;;;;;2.53;1.80;;;26.60;99.90;;;;;;5012741;28;20026;-53
2022/05/28 09:37:52;;;;;;;6.30;1.92;;;26.60;99.90;;;;;;5012750;28;20025;-53
2022/05/28 09:40:46;;;;;;;4.20;1.73;;;26.60;99.90;;;;;;5012590;28;20516;-53
2022/05/28 09:43:21;;;;;;;5.03;2.47;;;26.60;99.90;;;;;;5011454;28;20030;-53
2022/05/28 09:45:56;;;;;;;2.78;1.70;;;26.60;99.90;;;;;;4998013;28;20259;-53
2022/05/28 09:48:27;;;;;;;3.08;1.45;;;26.70;99.90;;;;;;5012424;28;20029;-52
2022/05/28 09:50:53;;;;;;;3.70;1.50;;;26.70;99.90;;;;;;4998208;28;20038;-53
2022/05/28 09:56:36;;;;;;;2.72;1.60;;;26.70;99.90;;;;;;5012012;28;20029;-53
2022/05/28 09:59:19;;;;;;;4.78;2.05;;;26.80;99.90;;;;;;5012122;28;20080;-53
2022/05/28 10:01:52;;;;;;;6.22;1.70;;;26.70;99.90;;;;;;5012324;28;20391;-54
2022/05/28 10:04:30;;;;;;;3.08;1.98;;;26.80;99.90;;;;;;5010709;28;20025;-53
2022/05/28 10:07:03;;;;;;;5.45;2.22;;;26.80;99.90;;;;;;5007792;28;20484;-53
2022/05/28 10:09:34;;;;;;;3.58;1.45;;;26.80;99.90;;;;;;5009118;28;20021;-54
2022/05/28 10:12:14;;;;;;;2.65;1.17;;;26.80;99.90;;;;;;5011330;28;20045;-53
2022/05/28 10:14:40;;;;;;;8.93;3.38;;;26.80;99.90;;;;;;5011658;28;20018;-54
2022/05/28 10:17:06;;;;;;;4.30;2.90;;;26.80;99.90;;;;;;5010524;28;20389;-53
2022/05/28 10:19:43;;;;;;;3.75;1.52;;;26.80;99.90;;;;;;5011793;28;20018;-52
2022/05/28 10:22:18;;;;;;;2.92;1.33;;;26.80;99.90;;;;;;5007512;28;20053;-53
2022/05/28 10:24:48;;;;;;;3.40;1.48;;;26.80;99.90;;;;;;5010899;28;20025;-54
2022/05/28 10:27:38;;;;;;;4.45;1.25;;;26.80;99.90;;;;;;5010556;28;20040;-53
2022/05/28 10:30:21;;;;;;;3.42;1.30;;;26.80;99.90;;;;;;5005876;28;20058;-55
2022/05/28 10:32:49;;;;;;;7.20;2.70;;;26.80;99.90;;;;;;5009445;28;20038;-54
2022/05/28 10:35:26;;;;;;;5.40;2.47;;;26.90;99.90;;;;;;5011241;28;20200;-54
2022/05/28 10:37:53;;;;;;;4.38;1.88;;;26.90;99.90;;;;;;5011706;28;20026;-56
2022/05/28 10:40:23;;;;;;;4.70;3.05;;;27.00;99.90;;;;;;5011687;28;20022;-53
2022/05/28 10:42:53;;;;;;;2.97;1.20;;;27.00;99.90;;;;;;5011834;28;20452;-52
2022/05/28 10:45:20;;;;;;;10.30;5.15;;;27.10;99.90;;;;;;5011623;28;20124;-52
2022/05/28 10:47:54;;;;;;;9.93;5.10;;;27.20;99.90;;;;;;5010375;28;20478;-53
2022/05/28 10:50:43;;;;;;;3.55;2.63;;;27.20;99.90;;;;;;5009249;28;20077;-53
2022/05/28 10:53:18;;;;;;;6.50;3.72;;;27.20;99.90;;;;;;5005650;28;20135;-53
2022/05/28 10:55:46;;;;;;;4.47;1.35;;;27.30;99.90;;;;;;5010924;28;20466;-53
2022/05/28 10:58:31;;;;;;;6.18;1.92;;;27.20;99.90;;;;;;5011032;28;20029;-53
2022/05/28 11:01:05;;;;;;;7.93;4.35;;;27.30;99.90;;;;;;5010492;28;20180;-53
2022/05/28 11:04:14;;;;;;;3.33;1.10;;;27.30;99.90;;;;;;5003215;28;20030;-52
2022/05/28 11:06:53;;;;;;;12.48;6.60;;;27.20;99.90;;;;;;4931158;29;20494;-53
2022/05/28 11:10:09;;;;;;;3.88;1.70;;;27.20;99.90;;;;;;5002543;28;20041;-54
2022/05/28 11:12:50;;;;;;;3.35;1.92;;;27.30;99.90;;;;;;5001685;28;20034;-53
2022/05/28 11:15:16;;;;;;;9.15;3.30;;;27.20;99.90;;;;;;5007284;28;20038;-51
2022/05/28 11:18:00;;;;;;;7.20;1.80;;;27.10;99.90;;;;;;5004253;28;20029;-51
2022/05/28 11:20:57;;;;;;;4.47;1.85;;;27.10;99.90;;;;;;5009586;28;20105;-52
2022/05/28 11:23:48;;;;;;;2.80;1.88;;;27.20;99.90;;;;;;5010170;28;20044;-52
2022/05/28 11:26:37;;;;;;;2.70;2.45;;;27.20;99.90;;;;;;5010074;28;20124;-50
2022/05/28 11:29:35;;;;;;;3.45;1.30;;;27.20;99.90;;;;;;5008800;28;20466;-52
2022/05/28 11:32:11;;;;;;;5.88;1.90;;;27.20;99.90;;;;;;5009854;28;20038;-51
2022/05/28 11:34:52;;;;;;;9.20;2.93;;;27.20;99.90;;;;;;5010356;28;20022;-50
2022/05/28 11:37:41;;;;;;;5.97;1.42;;;27.20;99.90;;;;;;5006445;28;20029;-50
2022/05/28 11:40:12;;;;;;;5.70;2.00;;;27.30;99.90;;;;;;5001040;28;20026;-51
2022/05/28 11:43:03;;;;;;;8.63;2.40;;;27.20;99.90;;;;;;5010064;28;20556;-51
2022/05/28 11:45:52;;;;;;;2.33;0.73;;;27.20;99.90;;;;;;5010664;28;20037;-50
2022/05/28 11:51:27;;;;;;;3.20;0.80;;;27.20;99.90;;;;;;5005937;28;20386;-51
2022/05/28 11:51:29;;;;;;;2.25;0.75;;;27.30;99.90;;;;;;5008031;28;20038;-51
2022/05/28 11:54:30;;;;;;;1.65;0.90;;;27.30;99.90;;;;;;5010451;28;20104;-52
2022/05/28 11:57:01;;;;;;;2.85;1.00;;;27.30;99.90;;;;;;4998507;28;20038;-51
2022/05/28 11:59:28;;;;;;;3.00;1.05;;;27.30;99.90;;;;;;5008185;28;20030;-52
2022/05/28 12:02:00;;;;;;;3.20;0.90;;;27.30;99.90;;;;;;5010954;28;20061;-52
2022/05/28 12:04:28;;;;;;;3.22;0.95;;;27.20;99.90;;;;;;5010739;28;20398;-52
2022/05/28 12:07:05;;;;;;;4.45;1.13;;;27.30;99.90;;;;;;5010758;28;20101;-52
2022/05/28 12:09:34;;;;;;;3.88;1.27;;;27.40;99.90;;;;;;5010635;28;20018;-52
2022/05/28 12:12:00;;;;;;;3.75;1.42;;;27.30;99.90;;;;;;5010692;28;20088;-51
2022/05/28 12:14:33;;;;;;;4.97;1.42;;;27.30;99.90;;;;;;5012226;28;20018;-52
2022/05/28 12:17:05;;;;;;;3.25;1.10;;;27.40;99.90;;;;;;5012192;28;20026;-52
2022/05/28 12:19:32;;;;;;;1.58;0.90;;;27.40;99.90;;;;;;5012575;28;20022;-51
2022/05/28 12:22:29;;;;;;;3.58;1.42;;;27.40;99.90;;;;;;5014290;28;20021;-52
2022/05/28 12:25:16;;;;;;;3.50;0.75;;;27.40;99.90;;;;;;5011134;28;20462;-53
2022/05/28 12:27:56;;;;;;;4.47;0.90;;;27.40;99.90;;;;;;5013770;28;20061;-52
2022/05/28 12:30:45;;;;;;;4.00;0.95;;;27.30;99.90;;;;;;5013994;28;20076;-52
2022/05/28 12:33:34;;;;;;;2.78;1.10;;;27.20;99.90;;;;;;5013739;28;20052;-51
2022/05/28 12:36:09;;;;;;;4.85;2.95;;;27.30;99.90;;;;;;5010399;28;20022;-53
2022/05/28 12:38:38;;;;;;;3.83;1.80;;;27.30;99.90;;;;;;5007871;28;20021;-53
2022/05/28 12:41:04;;;;;;;2.55;0.80;;;27.40;99.90;;;;;;4993684;28;20360;-51
2022/05/28 12:43:38;;;;;;;3.75;1.10;;;27.40;99.90;;;;;;5010382;28;20053;-52
2022/05/28 12:46:13;;;;;;;4.90;1.10;;;27.50;99.90;;;;;;5008546;28;20109;-52
2022/05/28 12:48:40;;;;;;;2.05;1.13;;;27.50;99.90;;;;;;5013529;28;20033;-52
2022/05/28 12:51:34;;;;;;;3.70;1.02;;;27.50;99.90;;;;;;5013594;28;20025;-52
2022/05/28 12:54:03;;;;;;;4.38;0.90;;;27.50;99.90;;;;;;5013495;28;20105;-53
2022/05/28 12:56:38;;;;;;;3.35;0.77;;;27.40;99.90;;;;;;5002613;28;20033;-53
2022/05/28 12:59:23;;;;;;;3.65;1.30;;;27.40;99.90;;;;;;4995377;28;20021;-54
2022/05/28 13:01:55;;;;;;;1.85;1.10;;;27.50;99.90;;;;;;4993182;28;20042;-53
2022/05/28 13:04:21;;;;;;;3.58;1.20;;;27.50;99.90;;;;;;5003804;28;20454;-52
2022/05/28 13:06:59;;;;;;;3.78;1.23;;;27.50;99.90;;;;;;5013585;28;20045;-52
2022/05/28 13:09:27;;;;;;;4.93;1.38;;;27.60;99.90;;;;;;5013408;28;20037;-51